sensor_id;sensor_type;location;lat;lon;timestamp;P1;durP1;ratioP1;P2;durP2;ratioP2
53644;SDS011;39547;45.554;12.068;2022-07-21T00:01:34;11.85;;;4.00;;
53644;SDS011;39547;45.554;12.068;2022-07-21T00:07:36;11.55;;;3.90;;
53644;SDS011;39547;45.554;12.068;2022-07-21T00:13:37;12.00;;;3.88;;
53644;SDS011;39547;45.554;12.068;2022-07-21T00:19:39;11.52;;;3.60;;
53644;SDS011;39547;45.554;12.068;2022-07-21T00:25:41;11.75;;;3.72;;
53644;SDS011;39547;45.554;12.068;2022-07-21T00:31:42;10.95;;;3.60;;
53644;SDS011;39547;45.554;12.068;2022-07-21T00:37:44;11.57;;;3.83;;
53644;SDS011;39547;45.554;12.068;2022-07-21T00:43:45;11.02;;;3.72;;
53644;SDS011;39547;45.554;12.068;2022-07-21T00:49:47;14.93;;;6.70;;
53644;SDS011;39547;45.554;12.068;2022-07-21T00:55:50;13.35;;;6.15;;
53644;SDS011;39547;45.554;12.068;2022-07-21T01:01:52;14.10;;;5.60;;
53644;SDS011;39547;45.554;12.068;2022-07-21T01:07:54;12.40;;;4.82;;
53644;SDS011;39547;45.554;12.068;2022-07-21T01:13:56;13.85;;;5.00;;
53644;SDS011;39547;45.554;12.068;2022-07-21T01:19:59;14.02;;;4.95;;
53644;SDS011;39547;45.554;12.068;2022-07-21T01:26:04;12.90;;;5.03;;
53644;SDS011;39547;45.554;12.068;2022-07-21T01:32:06;11.95;;;4.50;;
53644;SDS011;39547;45.554;12.068;2022-07-21T01:38:07;13.85;;;5.20;;
53644;SDS011;39547;45.554;12.068;2022-07-21T01:44:29;13.00;;;4.50;;
53644;SDS011;39547;45.554;12.068;2022-07-21T01:50:30;12.73;;;4.82;;
53644;SDS011;39547;45.554;12.068;2022-07-21T01:56:33;13.30;;;4.75;;
53644;SDS011;39547;45.554;12.068;2022-07-21T02:08:37;12.75;;;5.10;;
53644;SDS011;39547;45.554;12.068;2022-07-21T02:14:39;12.43;;;4.72;;
53644;SDS011;39547;45.554;12.068;2022-07-21T02:20:40;14.02;;;5.13;;
53644;SDS011;39547;45.554;12.068;2022-07-21T02:26:42;13.27;;;4.70;;
53644;SDS011;39547;45.554;12.068;2022-07-21T02:32:43;13.27;;;4.97;;
53644;SDS011;39547;45.554;12.068;2022-07-21T02:38:45;14.05;;;5.40;;
53644;SDS011;39547;45.554;12.068;2022-07-21T02:44:46;13.75;;;4.95;;
53644;SDS011;39547;45.554;12.068;2022-07-21T02:50:48;13.52;;;4.78;;
53644;SDS011;39547;45.554;12.068;2022-07-21T02:56:49;14.25;;;5.07;;
53644;SDS011;39547;45.554;12.068;2022-07-21T03:02:50;12.93;;;5.10;;
53644;SDS011;39547;45.554;12.068;2022-07-21T03:08:52;14.18;;;5.35;;
53644;SDS011;39547;45.554;12.068;2022-07-21T03:14:53;13.52;;;5.25;;
53644;SDS011;39547;45.554;12.068;2022-07-21T03:20:56;13.77;;;4.97;;
53644;SDS011;39547;45.554;12.068;2022-07-21T03:32:59;13.02;;;5.10;;
53644;SDS011;39547;45.554;12.068;2022-07-21T03:39:01;13.15;;;5.60;;
53644;SDS011;39547;45.554;12.068;2022-07-21T03:45:03;14.40;;;5.57;;
53644;SDS011;39547;45.554;12.068;2022-07-21T03:51:05;13.00;;;5.55;;
53644;SDS011;39547;45.554;12.068;2022-07-21T03:57:07;13.90;;;5.40;;
53644;SDS011;39547;45.554;12.068;2022-07-21T04:03:09;14.40;;;6.18;;
53644;SDS011;39547;45.554;12.068;2022-07-21T04:09:11;14.87;;;5.90;;
53644;SDS011;39547;45.554;12.068;2022-07-21T04:15:13;14.63;;;6.13;;
53644;SDS011;39547;45.554;12.068;2022-07-21T04:21:14;14.40;;;6.40;;
53644;SDS011;39547;45.554;12.068;2022-07-21T04:27:16;16.38;;;6.00;;
53644;SDS011;39547;45.554;12.068;2022-07-21T04:33:18;15.80;;;7.57;;
53644;SDS011;39547;45.554;12.068;2022-07-21T04:39:19;15.43;;;7.00;;
53644;SDS011;39547;45.554;12.068;2022-07-21T04:45:21;17.52;;;7.47;;
53644;SDS011;39547;45.554;12.068;2022-07-21T04:51:22;14.07;;;6.53;;
53644;SDS011;39547;45.554;12.068;2022-07-21T04:57:23;16.90;;;6.68;;
53644;SDS011;39547;45.554;12.068;2022-07-21T05:03:25;14.75;;;5.95;;
53644;SDS011;39547;45.554;12.068;2022-07-21T05:09:26;14.88;;;6.00;;
53644;SDS011;39547;45.554;12.068;2022-07-21T05:15:28;13.85;;;5.75;;
53644;SDS011;39547;45.554;12.068;2022-07-21T05:21:29;14.77;;;5.82;;
53644;SDS011;39547;45.554;12.068;2022-07-21T05:27:31;15.13;;;6.40;;
53644;SDS011;39547;45.554;12.068;2022-07-21T05:33:32;15.32;;;6.10;;
53644;SDS011;39547;45.554;12.068;2022-07-21T05:39:34;14.27;;;5.95;;
53644;SDS011;39547;45.554;12.068;2022-07-21T05:45:35;14.38;;;5.93;;
53644;SDS011;39547;45.554;12.068;2022-07-21T05:51:37;17.73;;;6.65;;
53644;SDS011;39547;45.554;12.068;2022-07-21T05:57:38;13.32;;;5.90;;
53644;SDS011;39547;45.554;12.068;2022-07-21T06:03:44;13.40;;;5.65;;
53644;SDS011;39547;45.554;12.068;2022-07-21T06:09:48;14.07;;;5.57;;
53644;SDS011;39547;45.554;12.068;2022-07-21T06:15:49;12.75;;;4.72;;
53644;SDS011;39547;45.554;12.068;2022-07-21T06:21:51;12.27;;;4.88;;
53644;SDS011;39547;45.554;12.068;2022-07-21T06:27:52;13.35;;;5.00;;
53644;SDS011;39547;45.554;12.068;2022-07-21T06:33:54;13.88;;;4.80;;
53644;SDS011;39547;45.554;12.068;2022-07-21T06:39:56;12.25;;;4.50;;
53644;SDS011;39547;45.554;12.068;2022-07-21T06:45:57;13.73;;;4.60;;
53644;SDS011;39547;45.554;12.068;2022-07-21T06:51:59;13.60;;;4.70;;
53644;SDS011;39547;45.554;12.068;2022-07-21T06:58:14;13.05;;;4.57;;
53644;SDS011;39547;45.554;12.068;2022-07-21T07:04:18;12.40;;;4.43;;
53644;SDS011;39547;45.554;12.068;2022-07-21T07:10:19;12.10;;;4.28;;
53644;SDS011;39547;45.554;12.068;2022-07-21T07:16:20;13.10;;;4.45;;
53644;SDS011;39547;45.554;12.068;2022-07-21T07:22:22;11.10;;;4.03;;
53644;SDS011;39547;45.554;12.068;2022-07-21T07:28:23;12.65;;;4.15;;
53644;SDS011;39547;45.554;12.068;2022-07-21T07:34:25;12.05;;;4.00;;
53644;SDS011;39547;45.554;12.068;2022-07-21T07:40:26;12.18;;;3.90;;
53644;SDS011;39547;45.554;12.068;2022-07-21T07:46:28;11.20;;;3.88;;
53644;SDS011;39547;45.554;12.068;2022-07-21T07:52:29;10.57;;;3.42;;
53644;SDS011;39547;45.554;12.068;2022-07-21T07:58:31;12.80;;;3.65;;
53644;SDS011;39547;45.554;12.068;2022-07-21T08:04:33;11.82;;;3.63;;
53644;SDS011;39547;45.554;12.068;2022-07-21T08:10:36;11.20;;;3.45;;
53644;SDS011;39547;45.554;12.068;2022-07-21T08:16:37;11.52;;;3.50;;
53644;SDS011;39547;45.554;12.068;2022-07-21T08:22:39;10.90;;;3.20;;
53644;SDS011;39547;45.554;12.068;2022-07-21T08:28:41;11.75;;;3.28;;
53644;SDS011;39547;45.554;12.068;2022-07-21T08:34:43;10.65;;;2.90;;
53644;SDS011;39547;45.554;12.068;2022-07-21T08:40:45;11.30;;;3.07;;
53644;SDS011;39547;45.554;12.068;2022-07-21T08:46:48;11.60;;;3.07;;
53644;SDS011;39547;45.554;12.068;2022-07-21T08:52:51;10.35;;;3.00;;
53644;SDS011;39547;45.554;12.068;2022-07-21T08:58:52;10.32;;;3.10;;
53644;SDS011;39547;45.554;12.068;2022-07-21T09:04:54;11.48;;;3.00;;
53644;SDS011;39547;45.554;12.068;2022-07-21T09:11:07;11.35;;;3.13;;
53644;SDS011;39547;45.554;12.068;2022-07-21T09:17:15;12.73;;;3.28;;
53644;SDS011;39547;45.554;12.068;2022-07-21T09:23:20;12.35;;;3.30;;
53644;SDS011;39547;45.554;12.068;2022-07-21T09:29:22;10.82;;;3.60;;
53644;SDS011;39547;45.554;12.068;2022-07-21T09:35:24;11.15;;;4.10;;
53644;SDS011;39547;45.554;12.068;2022-07-21T09:41:26;11.73;;;4.00;;
53644;SDS011;39547;45.554;12.068;2022-07-21T09:47:29;10.65;;;3.65;;
53644;SDS011;39547;45.554;12.068;2022-07-21T09:53:47;11.60;;;3.75;;
53644;SDS011;39547;45.554;12.068;2022-07-21T09:59:50;10.52;;;3.72;;
53644;SDS011;39547;45.554;12.068;2022-07-21T10:05:53;11.70;;;4.10;;
53644;SDS011;39547;45.554;12.068;2022-07-21T10:11:55;11.20;;;4.10;;
53644;SDS011;39547;45.554;12.068;2022-07-21T10:17:57;11.83;;;4.10;;
53644;SDS011;39547;45.554;12.068;2022-07-21T10:23:59;13.40;;;4.20;;
53644;SDS011;39547;45.554;12.068;2022-07-21T10:30:04;11.93;;;4.10;;
53644;SDS011;39547;45.554;12.068;2022-07-21T10:42:27;11.53;;;3.93;;
53644;SDS011;39547;45.554;12.068;2022-07-21T10:48:50;11.87;;;4.10;;
53644;SDS011;39547;45.554;12.068;2022-07-21T11:07:15;15.50;;;5.00;;
53644;SDS011;39547;45.554;12.068;2022-07-21T11:13:17;13.27;;;5.30;;
53644;SDS011;39547;45.554;12.068;2022-07-21T11:25:43;13.25;;;4.70;;
53644;SDS011;39547;45.554;12.068;2022-07-21T11:31:45;13.27;;;5.20;;
53644;SDS011;39547;45.554;12.068;2022-07-21T11:37:47;13.68;;;5.03;;
53644;SDS011;39547;45.554;12.068;2022-07-21T11:43:49;13.90;;;5.10;;
53644;SDS011;39547;45.554;12.068;2022-07-21T11:49:54;12.68;;;5.05;;
53644;SDS011;39547;45.554;12.068;2022-07-21T11:55:57;13.00;;;5.22;;
53644;SDS011;39547;45.554;12.068;2022-07-21T12:02:01;13.63;;;5.82;;
53644;SDS011;39547;45.554;12.068;2022-07-21T12:08:06;13.48;;;5.40;;
53644;SDS011;39547;45.554;12.068;2022-07-21T12:14:08;12.50;;;5.70;;
53644;SDS011;39547;45.554;12.068;2022-07-21T12:20:09;14.85;;;5.97;;
53644;SDS011;39547;45.554;12.068;2022-07-21T12:26:21;13.90;;;5.78;;
53644;SDS011;39547;45.554;12.068;2022-07-21T12:32:42;13.93;;;5.28;;
53644;SDS011;39547;45.554;12.068;2022-07-21T12:38:49;12.82;;;5.60;;
53644;SDS011;39547;45.554;12.068;2022-07-21T12:44:53;14.00;;;5.70;;
53644;SDS011;39547;45.554;12.068;2022-07-21T12:51:15;13.20;;;5.20;;
53644;SDS011;39547;45.554;12.068;2022-07-21T12:57:19;12.98;;;5.40;;
53644;SDS011;39547;45.554;12.068;2022-07-21T13:03:21;11.65;;;5.72;;
53644;SDS011;39547;45.554;12.068;2022-07-21T13:09:23;12.32;;;5.70;;
53644;SDS011;39547;45.554;12.068;2022-07-21T13:15:24;13.40;;;5.50;;
53644;SDS011;39547;45.554;12.068;2022-07-21T13:21:26;13.60;;;5.63;;
53644;SDS011;39547;45.554;12.068;2022-07-21T13:27:27;11.85;;;5.20;;
53644;SDS011;39547;45.554;12.068;2022-07-21T13:33:28;14.13;;;5.50;;
53644;SDS011;39547;45.554;12.068;2022-07-21T13:39:30;14.15;;;5.30;;
53644;SDS011;39547;45.554;12.068;2022-07-21T13:45:32;13.23;;;5.63;;
53644;SDS011;39547;45.554;12.068;2022-07-21T13:51:33;13.30;;;5.90;;
53644;SDS011;39547;45.554;12.068;2022-07-21T13:57:35;13.38;;;5.60;;
53644;SDS011;39547;45.554;12.068;2022-07-21T14:03:37;11.52;;;5.40;;
53644;SDS011;39547;45.554;12.068;2022-07-21T14:09:39;12.35;;;5.53;;
53644;SDS011;39547;45.554;12.068;2022-07-21T14:15:41;11.77;;;4.93;;
53644;SDS011;39547;45.554;12.068;2022-07-21T14:21:43;12.40;;;5.30;;
53644;SDS011;39547;45.554;12.068;2022-07-21T14:27:52;13.20;;;5.45;;
53644;SDS011;39547;45.554;12.068;2022-07-21T14:33:54;13.40;;;5.40;;
53644;SDS011;39547;45.554;12.068;2022-07-21T14:39:56;12.60;;;5.47;;
53644;SDS011;39547;45.554;12.068;2022-07-21T14:45:57;12.02;;;5.45;;
53644;SDS011;39547;45.554;12.068;2022-07-21T14:51:59;11.70;;;4.85;;
53644;SDS011;39547;45.554;12.068;2022-07-21T14:58:00;11.95;;;5.10;;
53644;SDS011;39547;45.554;12.068;2022-07-21T15:04:02;12.68;;;4.80;;
53644;SDS011;39547;45.554;12.068;2022-07-21T15:10:04;12.07;;;4.97;;
53644;SDS011;39547;45.554;12.068;2022-07-21T15:16:06;12.10;;;5.15;;
53644;SDS011;39547;45.554;12.068;2022-07-21T15:22:07;11.20;;;4.80;;
53644;SDS011;39547;45.554;12.068;2022-07-21T15:28:09;12.15;;;4.97;;
53644;SDS011;39547;45.554;12.068;2022-07-21T15:34:10;11.50;;;5.07;;
53644;SDS011;39547;45.554;12.068;2022-07-21T15:40:12;13.77;;;5.00;;
53644;SDS011;39547;45.554;12.068;2022-07-21T15:46:14;11.73;;;4.70;;
53644;SDS011;39547;45.554;12.068;2022-07-21T15:52:15;12.38;;;4.90;;
53644;SDS011;39547;45.554;12.068;2022-07-21T15:58:17;12.25;;;5.20;;
53644;SDS011;39547;45.554;12.068;2022-07-21T16:04:19;14.43;;;5.95;;
53644;SDS011;39547;45.554;12.068;2022-07-21T16:10:21;13.27;;;6.30;;
53644;SDS011;39547;45.554;12.068;2022-07-21T16:16:24;12.43;;;6.13;;
53644;SDS011;39547;45.554;12.068;2022-07-21T16:28:27;13.07;;;6.20;;
53644;SDS011;39547;45.554;12.068;2022-07-21T16:34:29;13.50;;;6.70;;
53644;SDS011;39547;45.554;12.068;2022-07-21T16:40:34;13.73;;;6.75;;
53644;SDS011;39547;45.554;12.068;2022-07-21T16:46:36;14.00;;;7.20;;
53644;SDS011;39547;45.554;12.068;2022-07-21T16:52:37;14.73;;;7.13;;
53644;SDS011;39547;45.554;12.068;2022-07-21T16:58:39;14.70;;;6.90;;
53644;SDS011;39547;45.554;12.068;2022-07-21T17:04:40;14.50;;;7.60;;
53644;SDS011;39547;45.554;12.068;2022-07-21T17:10:43;15.70;;;8.32;;
53644;SDS011;39547;45.554;12.068;2022-07-21T17:16:45;14.73;;;9.07;;
53644;SDS011;39547;45.554;12.068;2022-07-21T17:22:46;15.33;;;9.23;;
53644;SDS011;39547;45.554;12.068;2022-07-21T17:28:48;16.03;;;8.93;;
53644;SDS011;39547;45.554;12.068;2022-07-21T17:34:49;14.43;;;8.33;;
53644;SDS011;39547;45.554;12.068;2022-07-21T17:40:51;15.30;;;8.13;;
53644;SDS011;39547;45.554;12.068;2022-07-21T17:46:52;14.73;;;7.97;;
53644;SDS011;39547;45.554;12.068;2022-07-21T17:52:54;16.48;;;7.47;;
53644;SDS011;39547;45.554;12.068;2022-07-21T17:58:55;14.68;;;7.10;;
53644;SDS011;39547;45.554;12.068;2022-07-21T18:04:58;14.88;;;7.55;;
53644;SDS011;39547;45.554;12.068;2022-07-21T18:17:01;13.50;;;6.20;;
53644;SDS011;39547;45.554;12.068;2022-07-21T18:23:03;12.37;;;5.57;;
53644;SDS011;39547;45.554;12.068;2022-07-21T18:29:05;13.82;;;5.30;;
53644;SDS011;39547;45.554;12.068;2022-07-21T18:35:07;12.90;;;5.13;;
53644;SDS011;39547;45.554;12.068;2022-07-21T18:41:09;11.83;;;5.07;;
53644;SDS011;39547;45.554;12.068;2022-07-21T18:47:11;13.97;;;4.40;;
53644;SDS011;39547;45.554;12.068;2022-07-21T18:53:12;11.65;;;4.60;;
53644;SDS011;39547;45.554;12.068;2022-07-21T18:59:13;12.60;;;4.65;;
53644;SDS011;39547;45.554;12.068;2022-07-21T19:05:15;11.70;;;4.70;;
53644;SDS011;39547;45.554;12.068;2022-07-21T19:11:17;13.68;;;5.30;;
53644;SDS011;39547;45.554;12.068;2022-07-21T19:17:18;12.68;;;5.55;;
53644;SDS011;39547;45.554;12.068;2022-07-21T19:23:20;13.00;;;5.32;;
53644;SDS011;39547;45.554;12.068;2022-07-21T19:29:22;14.05;;;5.78;;
53644;SDS011;39547;45.554;12.068;2022-07-21T19:35:23;12.47;;;5.33;;
53644;SDS011;39547;45.554;12.068;2022-07-21T19:41:27;12.85;;;5.43;;
53644;SDS011;39547;45.554;12.068;2022-07-21T19:47:29;12.82;;;5.20;;
53644;SDS011;39547;45.554;12.068;2022-07-21T19:53:31;12.70;;;5.17;;
53644;SDS011;39547;45.554;12.068;2022-07-21T19:59:34;12.40;;;5.50;;
53644;SDS011;39547;45.554;12.068;2022-07-21T20:05:36;16.05;;;6.72;;
53644;SDS011;39547;45.554;12.068;2022-07-21T20:11:37;12.70;;;5.25;;
53644;SDS011;39547;45.554;12.068;2022-07-21T20:17:39;12.20;;;4.97;;
53644;SDS011;39547;45.554;12.068;2022-07-21T20:23:42;13.52;;;5.15;;
53644;SDS011;39547;45.554;12.068;2022-07-21T20:29:43;12.65;;;5.20;;
53644;SDS011;39547;45.554;12.068;2022-07-21T20:35:44;12.05;;;4.78;;
53644;SDS011;39547;45.554;12.068;2022-07-21T20:41:46;13.55;;;5.20;;
53644;SDS011;39547;45.554;12.068;2022-07-21T20:47:48;13.63;;;5.38;;
53644;SDS011;39547;45.554;12.068;2022-07-21T20:53:50;12.40;;;5.20;;
53644;SDS011;39547;45.554;12.068;2022-07-21T20:59:52;13.30;;;4.95;;
53644;SDS011;39547;45.554;12.068;2022-07-21T21:05:55;12.95;;;4.90;;
53644;SDS011;39547;45.554;12.068;2022-07-21T21:11:56;11.88;;;4.85;;
53644;SDS011;39547;45.554;12.068;2022-07-21T21:17:58;11.60;;;4.80;;
53644;SDS011;39547;45.554;12.068;2022-07-21T21:24:00;12.43;;;5.32;;
53644;SDS011;39547;45.554;12.068;2022-07-21T21:30:02;13.38;;;5.60;;
53644;SDS011;39547;45.554;12.068;2022-07-21T21:36:08;14.98;;;6.10;;
53644;SDS011;39547;45.554;12.068;2022-07-21T21:42:09;13.70;;;5.82;;
53644;SDS011;39547;45.554;12.068;2022-07-21T21:48:11;13.75;;;5.80;;
53644;SDS011;39547;45.554;12.068;2022-07-21T21:54:13;15.07;;;5.82;;
53644;SDS011;39547;45.554;12.068;2022-07-21T22:00:15;13.95;;;5.97;;
53644;SDS011;39547;45.554;12.068;2022-07-21T22:06:17;15.45;;;5.95;;
53644;SDS011;39547;45.554;12.068;2022-07-21T22:12:18;16.02;;;5.82;;
53644;SDS011;39547;45.554;12.068;2022-07-21T22:18:19;14.00;;;6.25;;
53644;SDS011;39547;45.554;12.068;2022-07-21T22:24:21;13.98;;;5.65;;
53644;SDS011;39547;45.554;12.068;2022-07-21T22:30:22;13.65;;;5.57;;
53644;SDS011;39547;45.554;12.068;2022-07-21T22:36:28;12.98;;;5.63;;
53644;SDS011;39547;45.554;12.068;2022-07-21T22:42:29;12.20;;;5.10;;
53644;SDS011;39547;45.554;12.068;2022-07-21T22:48:31;12.32;;;5.00;;
53644;SDS011;39547;45.554;12.068;2022-07-21T22:54:32;14.98;;;6.07;;
53644;SDS011;39547;45.554;12.068;2022-07-21T23:00:34;13.82;;;6.07;;
53644;SDS011;39547;45.554;12.068;2022-07-21T23:06:35;14.13;;;6.25;;
53644;SDS011;39547;45.554;12.068;2022-07-21T23:12:37;12.85;;;6.18;;
53644;SDS011;39547;45.554;12.068;2022-07-21T23:18:39;14.07;;;6.20;;
53644;SDS011;39547;45.554;12.068;2022-07-21T23:24:41;14.82;;;6.53;;
53644;SDS011;39547;45.554;12.068;2022-07-21T23:30:43;13.68;;;6.10;;
53644;SDS011;39547;45.554;12.068;2022-07-21T23:36:44;13.82;;;6.03;;
53644;SDS011;39547;45.554;12.068;2022-07-21T23:42:45;14.15;;;6.32;;
53644;SDS011;39547;45.554;12.068;2022-07-21T23:48:47;15.13;;;6.25;;
53644;SDS011;39547;45.554;12.068;2022-07-21T23:54:49;14.60;;;6.60;;
